sensor_id;sensor_type;location;lat;lon;timestamp;temperature;humidity
29777;DHT22;16677;52.224;7.484;2023-07-22T00:00:12;13.40;99.90
29777;DHT22;16677;52.224;7.484;2023-07-22T00:02:42;13.30;99.90
29777;DHT22;16677;52.224;7.484;2023-07-22T00:05:09;13.30;99.90
29777;DHT22;16677;52.224;7.484;2023-07-22T00:07:37;13.30;99.90
29777;DHT22;16677;52.224;7.484;2023-07-22T00:10:04;13.20;99.90
29777;DHT22;16677;52.224;7.484;2023-07-22T00:12:32;13.20;99.90
29777;DHT22;16677;52.224;7.484;2023-07-22T00:15:02;13.20;99.90
29777;DHT22;16677;52.224;7.484;2023-07-22T00:17:30;13.20;99.90
29777;DHT22;16677;52.224;7.484;2023-07-22T00:19:59;13.00;99.90
29777;DHT22;16677;52.224;7.484;2023-07-22T00:22:27;13.10;99.90
29777;DHT22;16677;52.224;7.484;2023-07-22T00:24:54;13.00;99.90
29777;DHT22;16677;52.224;7.484;2023-07-22T00:27:21;13.10;99.90
29777;DHT22;16677;52.224;7.484;2023-07-22T00:29:49;13.10;99.90
29777;DHT22;16677;52.224;7.484;2023-07-22T00:32:16;13.10;99.90
29777;DHT22;16677;52.224;7.484;2023-07-22T00:34:46;13.10;99.90
29777;DHT22;16677;52.224;7.484;2023-07-22T00:37:13;13.00;99.90
29777;DHT22;16677;52.224;7.484;2023-07-22T00:39:43;13.00;99.90
29777;DHT22;16677;52.224;7.484;2023-07-22T00:42:11;13.00;99.90
29777;DHT22;16677;52.224;7.484;2023-07-22T00:44:38;13.10;99.90
29777;DHT22;16677;52.224;7.484;2023-07-22T00:47:07;13.00;99.90
29777;DHT22;16677;52.224;7.484;2023-07-22T00:49:35;13.00;99.90
29777;DHT22;16677;52.224;7.484;2023-07-22T00:52:03;13.00;99.90
29777;DHT22;16677;52.224;7.484;2023-07-22T00:54:31;13.00;99.90
29777;DHT22;16677;52.224;7.484;2023-07-22T00:56:59;13.00;99.90
29777;DHT22;16677;52.224;7.484;2023-07-22T00:59:26;13.00;99.90
29777;DHT22;16677;52.224;7.484;2023-07-22T01:01:55;13.00;99.90
29777;DHT22;16677;52.224;7.484;2023-07-22T01:04:24;13.10;99.90
29777;DHT22;16677;52.224;7.484;2023-07-22T01:06:53;13.20;99.90
29777;DHT22;16677;52.224;7.484;2023-07-22T01:09:21;13.10;99.90
29777;DHT22;16677;52.224;7.484;2023-07-22T01:11:48;13.00;99.90
29777;DHT22;16677;52.224;7.484;2023-07-22T01:14:15;13.20;99.90
29777;DHT22;16677;52.224;7.484;2023-07-22T01:16:43;13.20;99.90
29777;DHT22;16677;52.224;7.484;2023-07-22T01:19:11;13.10;99.90
29777;DHT22;16677;52.224;7.484;2023-07-22T01:21:41;13.10;99.90
29777;DHT22;16677;52.224;7.484;2023-07-22T01:24:09;13.20;99.90
29777;DHT22;16677;52.224;7.484;2023-07-22T01:26:38;13.10;99.90
29777;DHT22;16677;52.224;7.484;2023-07-22T01:29:05;13.10;99.90
29777;DHT22;16677;52.224;7.484;2023-07-22T01:31:35;13.00;99.90
29777;DHT22;16677;52.224;7.484;2023-07-22T01:34:03;13.00;99.90
29777;DHT22;16677;52.224;7.484;2023-07-22T01:36:33;12.80;99.90
29777;DHT22;16677;52.224;7.484;2023-07-22T01:39:00;12.80;99.90
29777;DHT22;16677;52.224;7.484;2023-07-22T01:41:27;12.90;99.90
29777;DHT22;16677;52.224;7.484;2023-07-22T01:43:55;13.00;99.90
29777;DHT22;16677;52.224;7.484;2023-07-22T01:46:22;13.00;99.90
29777;DHT22;16677;52.224;7.484;2023-07-22T01:48:50;13.10;99.90
29777;DHT22;16677;52.224;7.484;2023-07-22T01:51:17;13.10;99.90
29777;DHT22;16677;52.224;7.484;2023-07-22T01:53:44;13.10;99.90
29777;DHT22;16677;52.224;7.484;2023-07-22T01:56:11;13.10;99.90
29777;DHT22;16677;52.224;7.484;2023-07-22T01:58:39;13.10;99.90
29777;DHT22;16677;52.224;7.484;2023-07-22T02:01:06;13.00;99.90
29777;DHT22;16677;52.224;7.484;2023-07-22T02:03:34;13.10;99.90
29777;DHT22;16677;52.224;7.484;2023-07-22T02:06:05;13.00;99.90
29777;DHT22;16677;52.224;7.484;2023-07-22T02:08:33;12.90;99.90
29777;DHT22;16677;52.224;7.484;2023-07-22T02:11:02;12.90;99.90
29777;DHT22;16677;52.224;7.484;2023-07-22T02:13:31;12.80;99.90
29777;DHT22;16677;52.224;7.484;2023-07-22T02:16:01;12.70;99.90
29777;DHT22;16677;52.224;7.484;2023-07-22T02:18:29;12.60;99.90
29777;DHT22;16677;52.224;7.484;2023-07-22T02:20:57;12.70;99.90
29777;DHT22;16677;52.224;7.484;2023-07-22T02:23:24;12.50;99.90
29777;DHT22;16677;52.224;7.484;2023-07-22T02:25:53;12.50;99.90
29777;DHT22;16677;52.224;7.484;2023-07-22T02:28:21;12.50;99.90
29777;DHT22;16677;52.224;7.484;2023-07-22T02:30:51;12.50;99.90
29777;DHT22;16677;52.224;7.484;2023-07-22T02:33:20;12.50;99.90
29777;DHT22;16677;52.224;7.484;2023-07-22T02:35:51;12.60;99.90
29777;DHT22;16677;52.224;7.484;2023-07-22T02:38:18;12.50;99.90
29777;DHT22;16677;52.224;7.484;2023-07-22T02:40:46;12.50;99.90
29777;DHT22;16677;52.224;7.484;2023-07-22T02:43:17;12.50;99.90
29777;DHT22;16677;52.224;7.484;2023-07-22T02:45:44;12.40;99.90
29777;DHT22;16677;52.224;7.484;2023-07-22T02:48:12;12.40;99.90
29777;DHT22;16677;52.224;7.484;2023-07-22T02:50:39;12.30;99.90
29777;DHT22;16677;52.224;7.484;2023-07-22T02:53:07;12.20;99.90
29777;DHT22;16677;52.224;7.484;2023-07-22T02:55:35;12.20;99.90
29777;DHT22;16677;52.224;7.484;2023-07-22T02:58:03;12.30;99.90
29777;DHT22;16677;52.224;7.484;2023-07-22T03:00:32;12.40;99.90
29777;DHT22;16677;52.224;7.484;2023-07-22T03:02:59;12.30;99.90
29777;DHT22;16677;52.224;7.484;2023-07-22T03:05:32;12.30;99.90
29777;DHT22;16677;52.224;7.484;2023-07-22T03:08:00;12.30;99.90
29777;DHT22;16677;52.224;7.484;2023-07-22T03:10:28;12.30;99.90
29777;DHT22;16677;52.224;7.484;2023-07-22T03:12:56;12.30;99.90
29777;DHT22;16677;52.224;7.484;2023-07-22T03:15:26;12.30;99.90
29777;DHT22;16677;52.224;7.484;2023-07-22T03:17:54;12.30;99.90
29777;DHT22;16677;52.224;7.484;2023-07-22T03:20:22;12.30;99.90
29777;DHT22;16677;52.224;7.484;2023-07-22T03:22:51;12.20;99.90
29777;DHT22;16677;52.224;7.484;2023-07-22T03:25:19;12.30;99.90
29777;DHT22;16677;52.224;7.484;2023-07-22T03:27:47;12.30;99.90
29777;DHT22;16677;52.224;7.484;2023-07-22T03:30:16;12.10;99.90
29777;DHT22;16677;52.224;7.484;2023-07-22T03:32:47;12.30;99.90
29777;DHT22;16677;52.224;7.484;2023-07-22T03:35:17;12.30;99.90
29777;DHT22;16677;52.224;7.484;2023-07-22T03:37:45;12.20;99.90
29777;DHT22;16677;52.224;7.484;2023-07-22T03:40:13;12.20;99.90
29777;DHT22;16677;52.224;7.484;2023-07-22T03:42:48;12.20;99.90
29777;DHT22;16677;52.224;7.484;2023-07-22T03:45:17;12.20;99.90
29777;DHT22;16677;52.224;7.484;2023-07-22T03:47:51;12.30;99.90
29777;DHT22;16677;52.224;7.484;2023-07-22T03:50:26;12.20;99.90
29777;DHT22;16677;52.224;7.484;2023-07-22T03:52:53;12.30;99.90
29777;DHT22;16677;52.224;7.484;2023-07-22T03:55:21;12.30;99.90
29777;DHT22;16677;52.224;7.484;2023-07-22T03:57:48;12.30;99.90
29777;DHT22;16677;52.224;7.484;2023-07-22T04:00:15;12.30;99.90
29777;DHT22;16677;52.224;7.484;2023-07-22T04:02:43;12.30;99.90
29777;DHT22;16677;52.224;7.484;2023-07-22T04:05:10;12.40;99.90
29777;DHT22;16677;52.224;7.484;2023-07-22T04:07:38;12.50;99.90
29777;DHT22;16677;52.224;7.484;2023-07-22T04:10:06;12.90;99.90
29777;DHT22;16677;52.224;7.484;2023-07-22T04:12:35;13.10;99.90
29777;DHT22;16677;52.224;7.484;2023-07-22T04:15:02;13.30;99.90
29777;DHT22;16677;52.224;7.484;2023-07-22T04:17:30;13.50;99.90
29777;DHT22;16677;52.224;7.484;2023-07-22T04:19:57;13.60;99.90
29777;DHT22;16677;52.224;7.484;2023-07-22T04:22:24;13.40;99.90
29777;DHT22;16677;52.224;7.484;2023-07-22T04:24:52;13.50;99.90
29777;DHT22;16677;52.224;7.484;2023-07-22T04:27:19;13.60;99.90
29777;DHT22;16677;52.224;7.484;2023-07-22T04:29:46;13.70;99.90
29777;DHT22;16677;52.224;7.484;2023-07-22T04:32:14;13.60;99.90
29777;DHT22;16677;52.224;7.484;2023-07-22T04:34:41;13.80;99.90
29777;DHT22;16677;52.224;7.484;2023-07-22T04:37:08;14.00;99.90
29777;DHT22;16677;52.224;7.484;2023-07-22T04:39:37;13.80;99.90
29777;DHT22;16677;52.224;7.484;2023-07-22T04:42:04;13.90;99.90
29777;DHT22;16677;52.224;7.484;2023-07-22T04:44:31;14.20;99.90
29777;DHT22;16677;52.224;7.484;2023-07-22T04:46:59;14.50;99.90
29777;DHT22;16677;52.224;7.484;2023-07-22T04:49:27;14.80;99.90
29777;DHT22;16677;52.224;7.484;2023-07-22T04:51:54;15.00;99.90
29777;DHT22;16677;52.224;7.484;2023-07-22T04:54:22;14.80;27.10
29777;DHT22;16677;52.224;7.484;2023-07-22T04:56:49;14.70;99.90
29777;DHT22;16677;52.224;7.484;2023-07-22T04:59:17;14.60;99.90
29777;DHT22;16677;52.224;7.484;2023-07-22T05:01:44;14.50;99.90
29777;DHT22;16677;52.224;7.484;2023-07-22T05:04:11;14.70;99.90
29777;DHT22;16677;52.224;7.484;2023-07-22T05:06:38;14.90;1.00
29777;DHT22;16677;52.224;7.484;2023-07-22T05:09:06;15.10;99.90
29777;DHT22;16677;52.224;7.484;2023-07-22T05:11:33;15.10;96.40
29777;DHT22;16677;52.224;7.484;2023-07-22T05:14:00;15.20;99.90
29777;DHT22;16677;52.224;7.484;2023-07-22T05:16:28;15.50;1.00
29777;DHT22;16677;52.224;7.484;2023-07-22T05:18:55;15.80;1.00
29777;DHT22;16677;52.224;7.484;2023-07-22T05:21:22;16.00;1.00
29777;DHT22;16677;52.224;7.484;2023-07-22T05:23:50;15.60;1.00
29777;DHT22;16677;52.224;7.484;2023-07-22T05:26:17;15.60;1.00
29777;DHT22;16677;52.224;7.484;2023-07-22T05:28:44;15.50;1.00
29777;DHT22;16677;52.224;7.484;2023-07-22T05:31:11;15.50;1.00
29777;DHT22;16677;52.224;7.484;2023-07-22T05:33:39;15.60;1.00
29777;DHT22;16677;52.224;7.484;2023-07-22T05:36:06;15.60;1.00
29777;DHT22;16677;52.224;7.484;2023-07-22T05:38:33;15.60;1.00
29777;DHT22;16677;52.224;7.484;2023-07-22T05:41:00;15.50;1.00
29777;DHT22;16677;52.224;7.484;2023-07-22T05:43:28;15.50;1.00
29777;DHT22;16677;52.224;7.484;2023-07-22T05:45:56;15.30;1.00
29777;DHT22;16677;52.224;7.484;2023-07-22T05:48:23;15.40;6.70
29777;DHT22;16677;52.224;7.484;2023-07-22T05:50:51;15.70;1.00
29777;DHT22;16677;52.224;7.484;2023-07-22T05:53:18;16.00;1.00
29777;DHT22;16677;52.224;7.484;2023-07-22T05:55:46;16.60;1.00
29777;DHT22;16677;52.224;7.484;2023-07-22T05:58:17;16.90;1.00
29777;DHT22;16677;52.224;7.484;2023-07-22T06:00:45;17.00;1.00
29777;DHT22;16677;52.224;7.484;2023-07-22T06:03:13;16.80;1.00
29777;DHT22;16677;52.224;7.484;2023-07-22T06:05:42;16.90;1.00
29777;DHT22;16677;52.224;7.484;2023-07-22T06:08:09;16.60;1.00
29777;DHT22;16677;52.224;7.484;2023-07-22T06:10:39;16.50;1.00
29777;DHT22;16677;52.224;7.484;2023-07-22T06:13:07;16.60;1.00
29777;DHT22;16677;52.224;7.484;2023-07-22T06:15:35;16.80;1.00
29777;DHT22;16677;52.224;7.484;2023-07-22T06:18:02;16.60;1.00
29777;DHT22;16677;52.224;7.484;2023-07-22T06:20:29;16.80;1.00
29777;DHT22;16677;52.224;7.484;2023-07-22T06:22:57;16.60;1.00
29777;DHT22;16677;52.224;7.484;2023-07-22T06:27:58;16.70;1.00
29777;DHT22;16677;52.224;7.484;2023-07-22T06:30:26;16.90;1.00
29777;DHT22;16677;52.224;7.484;2023-07-22T06:32:54;17.10;1.00
29777;DHT22;16677;52.224;7.484;2023-07-22T06:35:22;17.00;1.00
29777;DHT22;16677;52.224;7.484;2023-07-22T06:37:49;17.30;1.00
29777;DHT22;16677;52.224;7.484;2023-07-22T06:40:17;17.30;1.00
29777;DHT22;16677;52.224;7.484;2023-07-22T06:42:44;17.40;1.00
29777;DHT22;16677;52.224;7.484;2023-07-22T06:45:12;17.10;1.00
29777;DHT22;16677;52.224;7.484;2023-07-22T06:47:39;17.20;1.00
29777;DHT22;16677;52.224;7.484;2023-07-22T06:50:06;17.40;1.00
29777;DHT22;16677;52.224;7.484;2023-07-22T06:52:34;17.40;1.00
29777;DHT22;16677;52.224;7.484;2023-07-22T06:55:01;17.50;1.00
29777;DHT22;16677;52.224;7.484;2023-07-22T06:57:29;17.60;1.00
29777;DHT22;16677;52.224;7.484;2023-07-22T06:59:56;17.80;1.00
29777;DHT22;16677;52.224;7.484;2023-07-22T07:02:24;17.70;1.00
29777;DHT22;16677;52.224;7.484;2023-07-22T07:04:52;17.60;1.00
29777;DHT22;16677;52.224;7.484;2023-07-22T07:07:20;17.70;1.00
29777;DHT22;16677;52.224;7.484;2023-07-22T07:09:47;17.70;1.00
29777;DHT22;16677;52.224;7.484;2023-07-22T07:12:14;17.70;1.00
29777;DHT22;16677;52.224;7.484;2023-07-22T07:14:42;18.00;1.00
29777;DHT22;16677;52.224;7.484;2023-07-22T07:17:09;18.30;1.00
29777;DHT22;16677;52.224;7.484;2023-07-22T07:19:36;18.50;1.00
29777;DHT22;16677;52.224;7.484;2023-07-22T07:22:03;18.70;1.00
29777;DHT22;16677;52.224;7.484;2023-07-22T07:24:31;19.00;1.00
29777;DHT22;16677;52.224;7.484;2023-07-22T07:26:58;19.40;1.00
29777;DHT22;16677;52.224;7.484;2023-07-22T07:29:26;19.00;1.00
29777;DHT22;16677;52.224;7.484;2023-07-22T07:32:13;19.70;1.00
29777;DHT22;16677;52.224;7.484;2023-07-22T07:34:41;19.70;1.00
29777;DHT22;16677;52.224;7.484;2023-07-22T07:37:08;19.60;1.00
29777;DHT22;16677;52.224;7.484;2023-07-22T07:39:36;19.60;1.00
29777;DHT22;16677;52.224;7.484;2023-07-22T07:42:03;19.80;1.00
29777;DHT22;16677;52.224;7.484;2023-07-22T07:44:31;19.90;1.00
29777;DHT22;16677;52.224;7.484;2023-07-22T07:47:01;19.30;1.00
29777;DHT22;16677;52.224;7.484;2023-07-22T07:49:28;18.80;1.00
29777;DHT22;16677;52.224;7.484;2023-07-22T07:51:55;18.70;1.00
29777;DHT22;16677;52.224;7.484;2023-07-22T07:54:23;18.50;1.00
29777;DHT22;16677;52.224;7.484;2023-07-22T07:56:50;19.20;1.00
29777;DHT22;16677;52.224;7.484;2023-07-22T07:59:17;19.80;1.00
29777;DHT22;16677;52.224;7.484;2023-07-22T08:01:45;19.80;1.00
29777;DHT22;16677;52.224;7.484;2023-07-22T08:04:12;19.30;1.00
29777;DHT22;16677;52.224;7.484;2023-07-22T08:06:40;19.60;1.00
29777;DHT22;16677;52.224;7.484;2023-07-22T08:09:07;19.50;1.00
29777;DHT22;16677;52.224;7.484;2023-07-22T08:11:37;19.50;1.00
29777;DHT22;16677;52.224;7.484;2023-07-22T08:14:05;19.70;1.00
29777;DHT22;16677;52.224;7.484;2023-07-22T08:16:35;19.70;1.00
29777;DHT22;16677;52.224;7.484;2023-07-22T08:19:02;20.00;1.00
29777;DHT22;16677;52.224;7.484;2023-07-22T08:21:29;20.50;1.00
29777;DHT22;16677;52.224;7.484;2023-07-22T08:23:57;20.80;1.00
29777;DHT22;16677;52.224;7.484;2023-07-22T08:26:24;20.20;1.00
29777;DHT22;16677;52.224;7.484;2023-07-22T08:28:52;19.40;1.00
29777;DHT22;16677;52.224;7.484;2023-07-22T08:31:20;20.00;1.00
29777;DHT22;16677;52.224;7.484;2023-07-22T08:33:48;20.30;1.00
29777;DHT22;16677;52.224;7.484;2023-07-22T08:36:15;21.00;1.00
29777;DHT22;16677;52.224;7.484;2023-07-22T08:38:42;21.50;1.00
29777;DHT22;16677;52.224;7.484;2023-07-22T08:41:14;20.90;1.00
29777;DHT22;16677;52.224;7.484;2023-07-22T08:43:45;20.00;1.00
29777;DHT22;16677;52.224;7.484;2023-07-22T08:46:14;20.30;1.00
29777;DHT22;16677;52.224;7.484;2023-07-22T08:48:46;19.90;1.00
29777;DHT22;16677;52.224;7.484;2023-07-22T08:51:16;20.00;1.00
29777;DHT22;16677;52.224;7.484;2023-07-22T08:53:45;20.70;1.00
29777;DHT22;16677;52.224;7.484;2023-07-22T08:56:33;20.80;1.00
29777;DHT22;16677;52.224;7.484;2023-07-22T08:59:01;20.30;1.00
29777;DHT22;16677;52.224;7.484;2023-07-22T09:01:29;20.70;1.00
29777;DHT22;16677;52.224;7.484;2023-07-22T09:03:57;21.10;1.00
29777;DHT22;16677;52.224;7.484;2023-07-22T09:06:25;21.10;1.00
29777;DHT22;16677;52.224;7.484;2023-07-22T09:08:53;20.80;1.00
29777;DHT22;16677;52.224;7.484;2023-07-22T09:11:24;20.90;1.00
29777;DHT22;16677;52.224;7.484;2023-07-22T09:13:53;21.40;1.00
29777;DHT22;16677;52.224;7.484;2023-07-22T09:16:21;20.80;1.00
29777;DHT22;16677;52.224;7.484;2023-07-22T09:18:57;20.60;1.00
29777;DHT22;16677;52.224;7.484;2023-07-22T09:21:25;20.90;1.00
29777;DHT22;16677;52.224;7.484;2023-07-22T09:23:52;21.50;1.00
29777;DHT22;16677;52.224;7.484;2023-07-22T09:26:20;21.40;1.00
29777;DHT22;16677;52.224;7.484;2023-07-22T09:31:27;21.00;1.00
29777;DHT22;16677;52.224;7.484;2023-07-22T09:34:09;21.40;1.00
29777;DHT22;16677;52.224;7.484;2023-07-22T09:36:54;21.60;1.00
29777;DHT22;16677;52.224;7.484;2023-07-22T09:39:27;21.80;1.00
29777;DHT22;16677;52.224;7.484;2023-07-22T09:41:54;22.10;1.00
29777;DHT22;16677;52.224;7.484;2023-07-22T09:44:30;21.90;1.00
29777;DHT22;16677;52.224;7.484;2023-07-22T09:47:06;22.00;1.00
29777;DHT22;16677;52.224;7.484;2023-07-22T09:49:40;21.00;1.00
29777;DHT22;16677;52.224;7.484;2023-07-22T09:52:10;21.00;1.00
29777;DHT22;16677;52.224;7.484;2023-07-22T09:54:47;21.20;1.00
29777;DHT22;16677;52.224;7.484;2023-07-22T09:57:16;21.00;1.00
29777;DHT22;16677;52.224;7.484;2023-07-22T09:59:43;21.20;1.00
29777;DHT22;16677;52.224;7.484;2023-07-22T10:02:11;21.40;1.00
29777;DHT22;16677;52.224;7.484;2023-07-22T10:04:39;21.50;1.00
29777;DHT22;16677;52.224;7.484;2023-07-22T10:07:07;21.40;1.00
29777;DHT22;16677;52.224;7.484;2023-07-22T10:09:37;21.00;1.00
29777;DHT22;16677;52.224;7.484;2023-07-22T10:12:05;20.70;1.00
29777;DHT22;16677;52.224;7.484;2023-07-22T10:14:33;20.90;1.00
29777;DHT22;16677;52.224;7.484;2023-07-22T10:17:05;21.20;1.00
29777;DHT22;16677;52.224;7.484;2023-07-22T10:19:34;20.90;1.00
29777;DHT22;16677;52.224;7.484;2023-07-22T10:22:02;20.50;1.00
29777;DHT22;16677;52.224;7.484;2023-07-22T10:24:29;20.50;1.00
29777;DHT22;16677;52.224;7.484;2023-07-22T10:26:58;20.60;1.00
29777;DHT22;16677;52.224;7.484;2023-07-22T10:29:25;20.90;1.00
29777;DHT22;16677;52.224;7.484;2023-07-22T10:31:54;21.10;1.00
29777;DHT22;16677;52.224;7.484;2023-07-22T10:34:22;21.00;1.00
29777;DHT22;16677;52.224;7.484;2023-07-22T10:36:50;20.60;1.00
29777;DHT22;16677;52.224;7.484;2023-07-22T10:39:26;21.00;1.00
29777;DHT22;16677;52.224;7.484;2023-07-22T10:42:04;21.10;1.00
29777;DHT22;16677;52.224;7.484;2023-07-22T10:44:33;21.00;1.00
29777;DHT22;16677;52.224;7.484;2023-07-22T10:47:03;21.40;1.00
29777;DHT22;16677;52.224;7.484;2023-07-22T10:49:45;21.80;1.00
29777;DHT22;16677;52.224;7.484;2023-07-22T10:52:14;21.80;1.00
29777;DHT22;16677;52.224;7.484;2023-07-22T10:54:41;21.20;1.00
29777;DHT22;16677;52.224;7.484;2023-07-22T10:59:49;21.30;1.00
29777;DHT22;16677;52.224;7.484;2023-07-22T11:02:29;21.40;1.00
29777;DHT22;16677;52.224;7.484;2023-07-22T11:05:06;21.60;1.00
29777;DHT22;16677;52.224;7.484;2023-07-22T11:07:42;21.60;1.00
29777;DHT22;16677;52.224;7.484;2023-07-22T11:10:19;21.50;1.00
29777;DHT22;16677;52.224;7.484;2023-07-22T11:12:48;21.10;1.00
29777;DHT22;16677;52.224;7.484;2023-07-22T11:15:16;20.80;1.00
29777;DHT22;16677;52.224;7.484;2023-07-22T11:17:45;20.80;1.00
29777;DHT22;16677;52.224;7.484;2023-07-22T11:20:12;20.60;1.00
29777;DHT22;16677;52.224;7.484;2023-07-22T11:22:40;20.30;1.00
29777;DHT22;16677;52.224;7.484;2023-07-22T11:25:08;20.50;1.00
29777;DHT22;16677;52.224;7.484;2023-07-22T11:27:36;20.70;1.00
29777;DHT22;16677;52.224;7.484;2023-07-22T11:30:04;20.60;1.00
29777;DHT22;16677;52.224;7.484;2023-07-22T11:32:32;20.80;1.00
29777;DHT22;16677;52.224;7.484;2023-07-22T11:35:02;21.10;1.00
29777;DHT22;16677;52.224;7.484;2023-07-22T11:37:29;21.30;1.00
29777;DHT22;16677;52.224;7.484;2023-07-22T11:40:01;21.40;1.00
29777;DHT22;16677;52.224;7.484;2023-07-22T11:42:28;21.20;1.00
29777;DHT22;16677;52.224;7.484;2023-07-22T11:44:57;21.20;1.00
29777;DHT22;16677;52.224;7.484;2023-07-22T11:47:31;21.50;1.00
29777;DHT22;16677;52.224;7.484;2023-07-22T11:49:58;21.50;1.00
29777;DHT22;16677;52.224;7.484;2023-07-22T11:52:26;21.90;1.00
29777;DHT22;16677;52.224;7.484;2023-07-22T11:55:01;21.90;1.00
29777;DHT22;16677;52.224;7.484;2023-07-22T11:57:30;22.10;1.00
29777;DHT22;16677;52.224;7.484;2023-07-22T11:59:57;22.20;1.00
29777;DHT22;16677;52.224;7.484;2023-07-22T12:02:26;21.90;1.00
29777;DHT22;16677;52.224;7.484;2023-07-22T12:05:05;22.30;1.00
29777;DHT22;16677;52.224;7.484;2023-07-22T12:07:37;22.40;1.00
29777;DHT22;16677;52.224;7.484;2023-07-22T12:10:07;22.30;1.00
29777;DHT22;16677;52.224;7.484;2023-07-22T12:12:44;22.10;1.00
29777;DHT22;16677;52.224;7.484;2023-07-22T12:15:18;22.60;1.00
29777;DHT22;16677;52.224;7.484;2023-07-22T12:17:51;22.60;1.00
29777;DHT22;16677;52.224;7.484;2023-07-22T12:20:29;22.70;1.00
29777;DHT22;16677;52.224;7.484;2023-07-22T12:22:58;22.50;1.00
29777;DHT22;16677;52.224;7.484;2023-07-22T12:25:29;22.80;1.00
29777;DHT22;16677;52.224;7.484;2023-07-22T12:28:05;22.80;1.00
29777;DHT22;16677;52.224;7.484;2023-07-22T12:30:37;22.70;1.00
29777;DHT22;16677;52.224;7.484;2023-07-22T12:33:05;22.50;1.00
29777;DHT22;16677;52.224;7.484;2023-07-22T12:35:53;22.30;1.00
29777;DHT22;16677;52.224;7.484;2023-07-22T12:38:24;22.40;1.00
29777;DHT22;16677;52.224;7.484;2023-07-22T12:41:00;22.10;1.00
29777;DHT22;16677;52.224;7.484;2023-07-22T12:43:29;21.70;1.00
29777;DHT22;16677;52.224;7.484;2023-07-22T12:45:58;21.80;1.00
29777;DHT22;16677;52.224;7.484;2023-07-22T12:48:30;22.10;1.00
29777;DHT22;16677;52.224;7.484;2023-07-22T12:54:17;22.80;1.00
29777;DHT22;16677;52.224;7.484;2023-07-22T12:56:49;22.70;1.00
29777;DHT22;16677;52.224;7.484;2023-07-22T12:59:40;23.00;1.00
29777;DHT22;16677;52.224;7.484;2023-07-22T13:02:21;23.00;1.00
29777;DHT22;16677;52.224;7.484;2023-07-22T13:05:04;22.80;1.00
29777;DHT22;16677;52.224;7.484;2023-07-22T13:07:35;22.80;1.00
29777;DHT22;16677;52.224;7.484;2023-07-22T13:10:14;22.90;1.00
29777;DHT22;16677;52.224;7.484;2023-07-22T13:12:47;22.50;1.00
29777;DHT22;16677;52.224;7.484;2023-07-22T13:15:18;22.30;1.00
29777;DHT22;16677;52.224;7.484;2023-07-22T13:17:52;21.90;1.00
29777;DHT22;16677;52.224;7.484;2023-07-22T13:25:22;21.40;1.00
29777;DHT22;16677;52.224;7.484;2023-07-22T13:28:55;20.60;1.00
29777;DHT22;16677;52.224;7.484;2023-07-22T13:31:29;19.60;1.00
29777;DHT22;16677;52.224;7.484;2023-07-22T13:33:56;19.50;1.00
29777;DHT22;16677;52.224;7.484;2023-07-22T13:36:45;19.30;1.00
29777;DHT22;16677;52.224;7.484;2023-07-22T13:39:13;19.40;1.00
29777;DHT22;16677;52.224;7.484;2023-07-22T13:41:47;19.40;1.00
29777;DHT22;16677;52.224;7.484;2023-07-22T13:44:16;19.60;1.00
29777;DHT22;16677;52.224;7.484;2023-07-22T13:46:44;19.70;1.00
29777;DHT22;16677;52.224;7.484;2023-07-22T13:49:11;19.70;1.00
29777;DHT22;16677;52.224;7.484;2023-07-22T13:52:30;19.60;1.00
29777;DHT22;16677;52.224;7.484;2023-07-22T13:59:59;19.60;1.00
29777;DHT22;16677;52.224;7.484;2023-07-22T14:03:48;19.40;1.00
29777;DHT22;16677;52.224;7.484;2023-07-22T14:07:42;19.10;1.00
29777;DHT22;16677;52.224;7.484;2023-07-22T14:11:34;19.70;1.00
29777;DHT22;16677;52.224;7.484;2023-07-22T14:15:27;19.70;1.00
29777;DHT22;16677;52.224;7.484;2023-07-22T14:18:08;20.00;1.00
29777;DHT22;16677;52.224;7.484;2023-07-22T14:20:36;20.10;1.00
29777;DHT22;16677;52.224;7.484;2023-07-22T14:23:03;20.10;1.00
29777;DHT22;16677;52.224;7.484;2023-07-22T14:25:31;20.40;1.00
29777;DHT22;16677;52.224;7.484;2023-07-22T14:27:58;20.80;1.00
29777;DHT22;16677;52.224;7.484;2023-07-22T14:30:27;20.90;1.00
29777;DHT22;16677;52.224;7.484;2023-07-22T14:32:55;21.10;1.00
29777;DHT22;16677;52.224;7.484;2023-07-22T14:35:22;20.80;1.00
29777;DHT22;16677;52.224;7.484;2023-07-22T14:37:49;21.10;1.00
29777;DHT22;16677;52.224;7.484;2023-07-22T14:40:17;21.20;1.00
29777;DHT22;16677;52.224;7.484;2023-07-22T14:42:45;21.50;1.00
29777;DHT22;16677;52.224;7.484;2023-07-22T14:45:12;21.80;1.00
29777;DHT22;16677;52.224;7.484;2023-07-22T14:47:40;22.00;1.00
29777;DHT22;16677;52.224;7.484;2023-07-22T14:50:07;22.10;1.00
29777;DHT22;16677;52.224;7.484;2023-07-22T14:52:35;21.70;1.00
29777;DHT22;16677;52.224;7.484;2023-07-22T14:55:02;21.90;1.00
29777;DHT22;16677;52.224;7.484;2023-07-22T14:57:30;22.00;1.00
29777;DHT22;16677;52.224;7.484;2023-07-22T14:59:58;21.80;1.00
29777;DHT22;16677;52.224;7.484;2023-07-22T15:02:25;21.80;1.00
29777;DHT22;16677;52.224;7.484;2023-07-22T15:04:53;21.70;1.00
29777;DHT22;16677;52.224;7.484;2023-07-22T15:07:21;21.10;1.00
29777;DHT22;16677;52.224;7.484;2023-07-22T15:09:56;21.00;1.00
29777;DHT22;16677;52.224;7.484;2023-07-22T15:12:25;21.00;1.00
29777;DHT22;16677;52.224;7.484;2023-07-22T15:14:52;20.90;1.00
29777;DHT22;16677;52.224;7.484;2023-07-22T15:17:19;20.80;1.00
29777;DHT22;16677;52.224;7.484;2023-07-22T15:19:49;20.70;1.00
29777;DHT22;16677;52.224;7.484;2023-07-22T15:22:17;20.80;1.00
29777;DHT22;16677;52.224;7.484;2023-07-22T15:24:44;19.80;1.00
29777;DHT22;16677;52.224;7.484;2023-07-22T15:27:12;19.30;1.00
29777;DHT22;16677;52.224;7.484;2023-07-22T15:29:39;19.10;1.00
29777;DHT22;16677;52.224;7.484;2023-07-22T15:32:06;18.90;1.00
29777;DHT22;16677;52.224;7.484;2023-07-22T15:34:34;18.90;1.00
29777;DHT22;16677;52.224;7.484;2023-07-22T15:37:01;18.90;1.00
29777;DHT22;16677;52.224;7.484;2023-07-22T15:39:29;18.70;1.00
29777;DHT22;16677;52.224;7.484;2023-07-22T15:41:57;18.80;1.00
29777;DHT22;16677;52.224;7.484;2023-07-22T15:44:24;18.90;1.00
29777;DHT22;16677;52.224;7.484;2023-07-22T15:46:54;18.70;1.00
29777;DHT22;16677;52.224;7.484;2023-07-22T15:49:21;19.00;1.00
29777;DHT22;16677;52.224;7.484;2023-07-22T15:51:49;19.00;1.00
29777;DHT22;16677;52.224;7.484;2023-07-22T15:54:16;18.80;1.00
29777;DHT22;16677;52.224;7.484;2023-07-22T15:56:43;18.50;1.00
29777;DHT22;16677;52.224;7.484;2023-07-22T15:59:10;18.50;1.00
29777;DHT22;16677;52.224;7.484;2023-07-22T16:01:38;18.80;1.00
29777;DHT22;16677;52.224;7.484;2023-07-22T16:04:05;19.10;1.00
29777;DHT22;16677;52.224;7.484;2023-07-22T16:06:35;18.80;1.00
29777;DHT22;16677;52.224;7.484;2023-07-22T16:09:02;18.80;1.00
29777;DHT22;16677;52.224;7.484;2023-07-22T16:11:29;18.90;1.00
29777;DHT22;16677;52.224;7.484;2023-07-22T16:13:57;18.50;1.00
29777;DHT22;16677;52.224;7.484;2023-07-22T16:16:25;18.50;1.00
29777;DHT22;16677;52.224;7.484;2023-07-22T16:18:52;18.70;1.00